createdAt,value
2023-01-15T00:01:48.983Z,7.09
2023-01-15T00:04:15.753Z,6.93
2023-01-15T00:06:42.922Z,6.98
2023-01-15T00:09:14.039Z,7.01
2023-01-15T00:11:40.775Z,6.94
2023-01-15T00:14:07.448Z,6.97
2023-01-15T00:16:34.186Z,6.82
2023-01-15T00:19:01.567Z,6.82
2023-01-15T00:21:28.867Z,6.77
2023-01-15T00:24:14.732Z,6.68
2023-01-15T00:27:00.411Z,6.64
2023-01-15T00:29:27.090Z,6.57
2023-01-15T00:31:58.070Z,6.58
2023-01-15T00:34:26.093Z,6.55
2023-01-15T00:36:53.068Z,6.49
2023-01-15T00:39:20.097Z,6.42
2023-01-15T00:41:47.100Z,6.43
2023-01-15T00:44:13.905Z,6.54
2023-01-15T00:46:40.611Z,6.49
2023-01-15T00:49:07.296Z,6.48
2023-01-15T00:51:35.459Z,6.56
2023-01-15T00:54:02.510Z,6.45
2023-01-15T00:56:29.467Z,6.42
2023-01-15T00:58:56.231Z,6.35
2023-01-15T01:01:22.983Z,6.32
2023-01-15T01:03:52.659Z,6.27
2023-01-15T01:06:20.564Z,6.25
2023-01-15T01:08:47.963Z,6.17
2023-01-15T01:11:16.908Z,6.13
2023-01-15T01:13:44.515Z,6.22
2023-01-15T01:16:22.009Z,6.29
2023-01-15T01:18:49.794Z,6.17
2023-01-15T01:21:17.137Z,6.14
2023-01-15T01:23:44.043Z,6.15
2023-01-15T01:26:10.709Z,5.95
2023-01-15T01:28:37.474Z,5.92
2023-01-15T01:31:08.245Z,5.99
2023-01-15T01:33:35.563Z,5.94
2023-01-15T01:36:02.460Z,5.98
2023-01-15T01:38:29.110Z,5.96
2023-01-15T01:40:55.739Z,5.93
2023-01-15T01:43:24.857Z,5.91
2023-01-15T01:45:51.646Z,5.86
2023-01-15T01:48:23.548Z,5.84
2023-01-15T01:50:51.834Z,5.78
2023-01-15T01:53:21.656Z,5.84
2023-01-15T01:55:49.838Z,5.78
2023-01-15T01:58:16.869Z,5.76
2023-01-15T02:00:47.116Z,5.75
2023-01-15T02:03:16.235Z,5.84
2023-01-15T02:05:47.943Z,5.88
2023-01-15T02:08:14.666Z,5.87
2023-01-15T02:10:41.755Z,6.11
2023-01-15T02:13:12.449Z,6.13
2023-01-15T02:15:44.024Z,6.14
2023-01-15T02:18:24.262Z,6.10
2023-01-15T02:20:55.537Z,6.21
2023-01-15T02:23:25.073Z,6.22
2023-01-15T02:25:58.010Z,6.28
2023-01-15T02:28:34.052Z,6.36
2023-01-15T02:31:21.612Z,6.28
2023-01-15T02:34:03.569Z,6.30
2023-01-15T02:36:33.643Z,6.28
2023-01-15T02:39:05.692Z,6.14
2023-01-15T02:41:36.974Z,6.14
2023-01-15T02:44:05.544Z,6.29
2023-01-15T02:46:35.329Z,6.14
2023-01-15T02:49:07.589Z,6.07
2023-01-15T02:51:51.563Z,6.03
2023-01-15T02:54:23.794Z,6.04
2023-01-15T02:56:52.302Z,6.00
2023-01-15T02:59:23.220Z,6.00
2023-01-15T03:02:11.970Z,5.99
2023-01-15T03:04:44.683Z,5.97
2023-01-15T03:07:32.382Z,5.93
2023-01-15T03:09:59.234Z,5.97
2023-01-15T03:13:02.696Z,5.98
2023-01-15T03:16:19.806Z,6.06
2023-01-15T03:19:01.211Z,5.99
2023-01-15T03:21:50.304Z,5.86
2023-01-15T03:24:24.929Z,5.87
2023-01-15T03:26:53.194Z,5.97
2023-01-15T03:29:21.590Z,5.95
2023-01-15T03:31:49.943Z,5.86
2023-01-15T03:34:18.321Z,5.83
2023-01-15T03:36:46.166Z,5.78
2023-01-15T03:39:13.088Z,5.89
2023-01-15T03:41:52.134Z,5.82
2023-01-15T03:44:27.804Z,5.78
2023-01-15T03:47:24.834Z,5.69
2023-01-15T03:50:14.111Z,5.60
2023-01-15T03:53:13.711Z,5.65
2023-01-15T03:56:02.032Z,5.68
2023-01-15T03:58:43.120Z,5.61
2023-01-15T04:01:15.599Z,5.65
2023-01-15T04:03:42.872Z,5.66
2023-01-15T04:06:10.352Z,5.62
2023-01-15T04:08:39.869Z,5.65
2023-01-15T04:11:06.815Z,5.58
2023-01-15T04:13:41.000Z,5.64
2023-01-15T04:16:33.121Z,5.66
2023-01-15T04:18:59.886Z,5.71
2023-01-15T04:21:27.842Z,5.66
2023-01-15T04:23:54.520Z,5.48
2023-01-15T04:26:21.162Z,5.49
2023-01-15T04:28:47.840Z,5.47
2023-01-15T04:31:14.724Z,5.46
2023-01-15T04:33:41.506Z,5.38
2023-01-15T04:36:11.553Z,5.37
2023-01-15T04:38:38.546Z,5.35
2023-01-15T04:41:24.318Z,5.31
2023-01-15T04:44:09.366Z,5.31
2023-01-15T04:46:40.972Z,5.46
2023-01-15T04:49:10.683Z,5.27
2023-01-15T04:51:39.351Z,5.36
2023-01-15T04:54:08.072Z,5.15
2023-01-15T04:56:39.395Z,5.16
2023-01-15T04:59:06.228Z,5.16
2023-01-15T05:01:33.004Z,5.16
2023-01-15T05:04:00.852Z,5.40
2023-01-15T05:06:28.132Z,5.24
2023-01-15T05:08:54.762Z,5.13
2023-01-15T05:11:21.421Z,5.04
2023-01-15T05:13:48.058Z,4.94
2023-01-15T05:16:24.769Z,4.94
2023-01-15T05:18:52.904Z,5.01
2023-01-15T05:21:22.729Z,5.04
2023-01-15T05:23:50.804Z,5.05
2023-01-15T05:26:17.971Z,5.10
2023-01-15T05:28:44.752Z,5.12
2023-01-15T05:31:18.507Z,5.01
2023-01-15T05:33:46.815Z,4.96
2023-01-15T05:36:15.926Z,4.91
2023-01-15T05:38:42.571Z,4.91
2023-01-15T05:41:33.550Z,5.03
2023-01-15T05:44:02.307Z,4.94
2023-01-15T05:46:29.114Z,4.92
2023-01-15T05:49:00.200Z,4.85
2023-01-15T05:51:26.786Z,4.94
2023-01-15T05:53:53.512Z,4.87
2023-01-15T05:56:20.106Z,4.87
2023-01-15T05:58:47.455Z,4.80
2023-01-15T06:01:14.166Z,4.82
2023-01-15T06:03:41.778Z,4.70
2023-01-15T06:06:13.088Z,4.61
2023-01-15T06:08:39.891Z,4.67
2023-01-15T06:11:07.330Z,4.76
2023-01-15T06:13:34.384Z,4.79
2023-01-15T06:16:01.557Z,4.80
2023-01-15T06:18:28.256Z,4.73
2023-01-15T06:20:54.896Z,4.85
2023-01-15T06:23:21.496Z,4.83
2023-01-15T06:25:48.123Z,4.83
2023-01-15T06:28:14.690Z,4.66
2023-01-15T06:30:41.251Z,4.72
2023-01-15T06:33:07.832Z,4.56
2023-01-15T06:35:35.265Z,4.39
2023-01-15T06:38:01.829Z,4.40
2023-01-15T06:40:29.105Z,4.41
2023-01-15T06:43:17.603Z,4.47
2023-01-15T06:46:03.069Z,4.58
2023-01-15T06:48:29.750Z,4.36
2023-01-15T06:50:56.678Z,4.47
2023-01-15T06:53:23.368Z,4.49
2023-01-15T06:55:50.041Z,4.55
2023-01-15T06:58:17.226Z,4.53
2023-01-15T07:00:45.143Z,4.56
2023-01-15T07:03:14.357Z,4.61
2023-01-15T07:05:41.265Z,4.69
2023-01-15T07:08:07.820Z,4.66
2023-01-15T07:10:35.571Z,4.76
2023-01-15T07:13:02.599Z,4.84
2023-01-15T07:15:29.248Z,4.81
2023-01-15T07:17:57.148Z,4.85
2023-01-15T07:20:24.240Z,4.88
2023-01-15T07:22:51.699Z,4.95
2023-01-15T07:25:18.802Z,5.00
2023-01-15T07:27:48.502Z,5.15
2023-01-15T07:30:15.562Z,5.20
2023-01-15T07:32:42.270Z,5.24
2023-01-15T07:35:10.268Z,5.29
2023-01-15T07:37:37.858Z,5.36
2023-01-15T07:40:04.961Z,5.42
2023-01-15T07:42:50.157Z,5.49
2023-01-15T07:45:35.998Z,5.60
2023-01-15T07:48:21.050Z,5.54
2023-01-15T07:50:47.628Z,5.38
2023-01-15T07:53:14.193Z,5.37
2023-01-15T07:55:40.834Z,5.21
2023-01-15T07:58:07.382Z,5.28
2023-01-15T08:00:33.997Z,5.21
2023-01-15T08:03:01.291Z,5.02
2023-01-15T08:05:27.927Z,5.01
2023-01-15T08:07:54.537Z,5.05
2023-01-15T08:10:21.225Z,4.98
2023-01-15T08:13:08.449Z,5.02
2023-01-15T08:15:39.591Z,4.97
2023-01-15T08:18:07.126Z,4.98
2023-01-15T08:20:37.624Z,5.05
2023-01-15T08:23:04.665Z,5.09
2023-01-15T08:25:31.481Z,5.14
2023-01-15T08:28:02.100Z,5.20
2023-01-15T08:30:28.797Z,5.33
2023-01-15T08:33:00.573Z,5.45
2023-01-15T08:35:27.271Z,5.56
2023-01-15T08:37:53.902Z,5.70
2023-01-15T08:40:20.730Z,5.81
2023-01-15T08:42:47.414Z,5.88
2023-01-15T08:45:14.801Z,5.98
2023-01-15T08:47:41.510Z,6.05
2023-01-15T08:50:09.542Z,6.09
2023-01-15T08:52:38.100Z,6.11
2023-01-15T08:55:05.685Z,6.28
2023-01-15T08:57:32.368Z,6.24
2023-01-15T08:59:59.108Z,6.36
2023-01-15T09:02:25.858Z,6.46
2023-01-15T09:04:52.794Z,6.50
2023-01-15T09:07:19.790Z,6.44
2023-01-15T09:09:46.467Z,6.53
2023-01-15T09:12:14.146Z,6.55
2023-01-15T09:14:56.619Z,6.48
2023-01-15T09:17:28.020Z,6.45
2023-01-15T09:19:54.907Z,6.53
2023-01-15T09:22:21.491Z,6.62
2023-01-15T09:24:48.102Z,6.68
2023-01-15T09:27:14.781Z,6.84
2023-01-15T09:29:41.394Z,6.89
2023-01-15T09:32:09.889Z,6.93
2023-01-15T09:34:36.544Z,7.03
2023-01-15T09:37:03.261Z,7.19
2023-01-15T09:39:29.927Z,7.19
2023-01-15T09:42:08.836Z,7.37
2023-01-15T09:44:41.835Z,7.38
2023-01-15T09:47:23.671Z,7.50
2023-01-15T09:49:56.324Z,7.43
2023-01-15T09:52:43.503Z,7.48
2023-01-15T09:55:14.461Z,7.71
2023-01-15T09:57:42.261Z,7.78
2023-01-15T10:00:25.099Z,7.88
2023-01-15T10:03:25.647Z,8.01
2023-01-15T10:06:07.049Z,8.10
2023-01-15T10:08:42.214Z,8.03
2023-01-15T10:11:15.579Z,8.06
2023-01-15T10:13:51.925Z,8.09
2023-01-15T10:16:22.881Z,8.06
2023-01-15T10:18:50.003Z,8.09
2023-01-15T10:21:48.040Z,8.08
2023-01-15T10:24:38.496Z,8.18
2023-01-15T10:27:21.791Z,8.03
2023-01-15T10:30:16.184Z,8.11
2023-01-15T10:33:01.553Z,7.98
2023-01-15T10:35:48.003Z,7.87
2023-01-15T10:38:32.627Z,7.82
2023-01-15T10:41:06.711Z,7.73
2023-01-15T10:44:00.603Z,7.71
2023-01-15T10:46:33.506Z,7.62
2023-01-15T10:49:05.146Z,7.60
2023-01-15T10:51:44.674Z,7.53
2023-01-15T10:54:15.246Z,7.49
2023-01-15T10:57:28.714Z,7.38
2023-01-15T11:00:00.213Z,7.21
2023-01-15T11:02:38.525Z,7.20
2023-01-15T11:05:05.915Z,7.29
2023-01-15T11:07:50.093Z,7.28
2023-01-15T11:10:26.368Z,7.22
2023-01-15T11:13:14.596Z,7.18
2023-01-15T11:16:04.229Z,7.21
2023-01-15T11:18:59.779Z,7.27
2023-01-15T11:21:27.767Z,7.35
2023-01-15T11:23:55.913Z,7.33
2023-01-15T11:26:28.216Z,7.46
2023-01-15T11:28:55.703Z,7.39
2023-01-15T11:31:22.495Z,7.38
2023-01-15T11:33:59.818Z,7.35
2023-01-15T11:36:28.342Z,7.21
2023-01-15T11:38:55.094Z,7.19
2023-01-15T11:41:51.849Z,7.20
2023-01-15T11:44:40.556Z,7.08
2023-01-15T11:47:30.353Z,7.07
2023-01-15T11:50:15.734Z,7.17
2023-01-15T11:52:48.175Z,7.22
2023-01-15T11:55:21.077Z,7.15
2023-01-15T11:57:48.230Z,7.20
2023-01-15T12:00:30.813Z,7.32
2023-01-15T12:03:12.003Z,7.35
2023-01-15T12:05:47.043Z,7.41
2023-01-15T12:08:42.961Z,7.47
2023-01-15T12:11:33.673Z,7.43
2023-01-15T12:14:26.651Z,7.39
2023-01-15T12:17:06.977Z,7.33
2023-01-15T12:19:55.065Z,7.28
2023-01-15T12:22:36.820Z,7.19
2023-01-15T12:25:11.075Z,7.17
2023-01-15T12:27:55.212Z,7.09
2023-01-15T12:30:28.568Z,6.96
2023-01-15T12:33:11.687Z,6.96
2023-01-15T12:35:56.269Z,6.87
2023-01-15T12:38:37.943Z,6.85
2023-01-15T12:41:10.729Z,6.84
2023-01-15T12:43:55.932Z,6.83
2023-01-15T12:46:31.276Z,6.75
2023-01-15T12:49:21.988Z,6.77
2023-01-15T12:52:17.120Z,6.86
2023-01-15T12:54:53.221Z,6.74
2023-01-15T12:57:34.709Z,6.65
2023-01-15T13:00:16.454Z,6.68
2023-01-15T13:02:54.239Z,6.72
2023-01-15T13:05:34.865Z,6.69
2023-01-15T13:08:06.807Z,6.62
2023-01-15T13:10:41.210Z,6.65
2023-01-15T13:13:16.584Z,6.62
2023-01-15T13:16:18.389Z,6.61
2023-01-15T13:19:03.553Z,6.55
2023-01-15T13:21:31.766Z,6.55
2023-01-15T13:24:18.932Z,6.53
2023-01-15T13:27:03.071Z,6.54
2023-01-15T13:29:29.650Z,6.53
2023-01-15T13:32:03.373Z,6.44
2023-01-15T13:34:41.257Z,6.41
2023-01-15T13:37:18.574Z,6.43
2023-01-15T13:39:45.492Z,6.55
2023-01-15T13:42:37.083Z,6.54
2023-01-15T13:45:18.909Z,6.51
2023-01-15T13:47:52.736Z,6.47
2023-01-15T13:50:31.538Z,6.44
2023-01-15T13:53:04.401Z,6.40
2023-01-15T13:55:34.290Z,6.36
2023-01-15T13:58:00.830Z,6.41
2023-01-15T14:00:36.421Z,6.42
2023-01-15T14:03:26.855Z,6.31
2023-01-15T14:06:03.997Z,6.29
2023-01-15T14:08:57.087Z,6.28
2023-01-15T14:11:39.427Z,6.26
2023-01-15T14:14:28.653Z,6.24
2023-01-15T14:17:23.450Z,6.16
2023-01-15T14:20:05.652Z,6.10
2023-01-15T14:22:39.714Z,5.97
2023-01-15T14:25:33.814Z,6.05
2023-01-15T14:28:30.073Z,5.93
2023-01-15T14:31:05.426Z,5.92
2023-01-15T14:33:44.214Z,5.83
2023-01-15T14:36:17.147Z,6.00
2023-01-15T14:38:53.797Z,5.96
2023-01-15T14:41:32.467Z,5.73
2023-01-15T14:44:00.900Z,5.64
2023-01-15T14:46:34.715Z,5.49
2023-01-15T14:49:01.922Z,5.47
2023-01-15T14:51:36.441Z,5.59
2023-01-15T14:54:13.040Z,5.66
2023-01-15T14:56:45.341Z,5.61
2023-01-15T14:59:30.930Z,5.62
2023-01-15T15:02:02.751Z,5.61
2023-01-15T15:04:52.879Z,5.63
2023-01-15T15:07:28.495Z,5.70
2023-01-15T15:10:12.710Z,5.60
2023-01-15T15:12:45.767Z,5.78
2023-01-15T15:15:17.612Z,5.78
2023-01-15T15:18:06.138Z,5.62
2023-01-15T15:20:41.943Z,5.54
2023-01-15T15:23:22.429Z,5.54
2023-01-15T15:25:56.544Z,5.47
2023-01-15T15:28:23.421Z,5.56
2023-01-15T15:30:50.341Z,5.63
2023-01-15T15:33:23.291Z,5.61
2023-01-15T15:35:53.328Z,5.58
2023-01-15T15:38:22.223Z,5.66
2023-01-15T15:40:52.468Z,5.83
2023-01-15T15:43:43.289Z,5.67
2023-01-15T15:46:42.698Z,5.62
2023-01-15T15:49:10.047Z,5.57
2023-01-15T15:51:40.228Z,5.57
2023-01-15T15:54:16.630Z,5.49
2023-01-15T15:56:48.310Z,5.51
2023-01-15T15:59:20.682Z,5.52
2023-01-15T16:01:47.545Z,5.63
2023-01-15T16:04:18.637Z,5.66
2023-01-15T16:06:45.289Z,5.67
2023-01-15T16:09:11.921Z,5.76
2023-01-15T16:11:38.977Z,5.74
2023-01-15T16:14:08.202Z,5.75
2023-01-15T16:16:34.864Z,5.73
2023-01-15T16:19:02.350Z,5.81
2023-01-15T16:21:36.442Z,5.89
2023-01-15T16:24:08.120Z,5.84
2023-01-15T16:26:48.395Z,5.81
2023-01-15T16:29:20.752Z,5.78
2023-01-15T16:31:48.715Z,5.75
2023-01-15T16:34:34.984Z,5.76
2023-01-15T16:37:02.157Z,5.88
2023-01-15T16:39:39.815Z,6.00
2023-01-15T16:42:24.549Z,5.89
2023-01-15T16:44:54.501Z,5.75
2023-01-15T16:47:25.517Z,5.74
2023-01-15T16:49:52.207Z,5.73
2023-01-15T16:52:49.221Z,5.95
2023-01-15T16:55:50.217Z,6.22
2023-01-15T16:58:18.880Z,6.42
2023-01-15T17:00:51.212Z,6.46
2023-01-15T17:03:20.578Z,6.75
2023-01-15T17:05:53.430Z,6.86
2023-01-15T17:08:22.636Z,6.92
2023-01-15T17:10:53.968Z,7.09
2023-01-15T17:13:21.533Z,7.26
2023-01-15T17:16:01.024Z,7.23
2023-01-15T17:18:29.350Z,7.08
2023-01-15T17:20:56.235Z,7.14
2023-01-15T17:23:26.668Z,7.24
2023-01-15T17:25:53.764Z,7.30
2023-01-15T17:28:24.305Z,7.03
2023-01-15T17:30:52.735Z,7.11
2023-01-15T17:33:20.635Z,7.18
2023-01-15T17:35:48.646Z,7.24
2023-01-15T17:38:16.648Z,7.09
2023-01-15T17:40:43.328Z,7.19
2023-01-15T17:43:13.271Z,7.32
2023-01-15T17:45:40.058Z,7.28
2023-01-15T17:48:08.978Z,7.22
2023-01-15T17:50:37.314Z,7.27
2023-01-15T17:53:05.450Z,7.12
2023-01-15T17:55:50.738Z,7.16
2023-01-15T17:58:35.965Z,7.21
2023-01-15T18:01:31.201Z,7.20
2023-01-15T18:04:16.618Z,7.26
2023-01-15T18:06:47.311Z,7.26
2023-01-15T18:09:14.364Z,7.15
2023-01-15T18:11:41.039Z,7.18
2023-01-15T18:14:07.734Z,7.24
2023-01-15T18:16:34.330Z,7.11
2023-01-15T18:19:00.918Z,7.13
2023-01-15T18:21:28.318Z,7.16
2023-01-15T18:23:55.028Z,7.02
2023-01-15T18:26:21.690Z,7.12
2023-01-15T18:28:48.682Z,7.11
2023-01-15T18:31:15.331Z,6.96
2023-01-15T18:33:41.952Z,7.03
2023-01-15T18:36:11.314Z,6.98
2023-01-15T18:38:47.015Z,6.89
2023-01-15T18:41:37.090Z,6.96
2023-01-15T18:44:34.218Z,6.77
2023-01-15T18:47:09.542Z,6.92
2023-01-15T18:49:36.186Z,6.81
2023-01-15T18:52:21.595Z,6.75
2023-01-15T18:54:48.261Z,6.86
2023-01-15T18:57:16.168Z,6.87
2023-01-15T18:59:45.104Z,6.87
2023-01-15T19:02:13.525Z,6.87
2023-01-15T19:04:40.902Z,6.81
2023-01-15T19:07:07.734Z,6.84
2023-01-15T19:09:35.819Z,6.92
2023-01-15T19:12:03.270Z,6.89
2023-01-15T19:14:48.582Z,6.68
2023-01-15T19:17:37.369Z,6.79
2023-01-15T19:20:04.499Z,6.78
2023-01-15T19:22:49.695Z,6.80
2023-01-15T19:25:16.692Z,6.82
2023-01-15T19:27:43.594Z,6.79
2023-01-15T19:30:10.833Z,6.60
2023-01-15T19:32:37.385Z,6.58
2023-01-15T19:35:04.305Z,6.57
2023-01-15T19:37:31.819Z,6.60
2023-01-15T19:39:58.359Z,6.67
2023-01-15T19:42:43.472Z,6.62
2023-01-15T19:45:29.085Z,6.80
2023-01-15T19:48:14.417Z,6.80
2023-01-15T19:50:42.833Z,6.63
2023-01-15T19:53:10.257Z,6.63
2023-01-15T19:55:39.016Z,6.70
2023-01-15T19:58:07.961Z,6.56
2023-01-15T20:00:37.270Z,6.48
2023-01-15T20:03:05.368Z,6.54
2023-01-15T20:05:32.863Z,6.40
2023-01-15T20:07:59.552Z,6.53
2023-01-15T20:10:28.061Z,6.43
2023-01-15T20:13:13.501Z,6.56
2023-01-15T20:15:42.726Z,6.50
2023-01-15T20:18:10.003Z,6.40
2023-01-15T20:20:37.965Z,6.50
2023-01-15T20:23:05.272Z,6.36
2023-01-15T20:25:32.261Z,6.44
2023-01-15T20:27:59.979Z,6.49
2023-01-15T20:30:27.484Z,6.39
2023-01-15T20:32:55.481Z,6.45
2023-01-15T20:35:25.034Z,6.43
2023-01-15T20:37:52.069Z,6.46
2023-01-15T20:40:21.949Z,6.44
2023-01-15T20:43:07.061Z,6.57
2023-01-15T20:45:33.975Z,6.51
2023-01-15T20:48:13.091Z,6.44
2023-01-15T20:51:00.631Z,6.35
2023-01-15T20:53:35.637Z,6.43
2023-01-15T20:56:03.388Z,6.31
2023-01-15T20:58:30.075Z,6.24
2023-01-15T21:01:03.325Z,6.39
2023-01-15T21:03:30.066Z,6.29
2023-01-15T21:05:57.822Z,6.24
2023-01-15T21:08:24.737Z,6.34
2023-01-15T21:10:52.601Z,6.24
2023-01-15T21:13:22.793Z,6.20
2023-01-15T21:15:58.161Z,6.11
2023-01-15T21:18:26.364Z,6.14
2023-01-15T21:20:53.038Z,6.11
2023-01-15T21:23:19.780Z,6.22
2023-01-15T21:25:46.384Z,6.12
2023-01-15T21:28:13.090Z,6.25
2023-01-15T21:30:40.728Z,6.38
2023-01-15T21:33:08.918Z,6.26
2023-01-15T21:35:38.968Z,6.27
2023-01-15T21:38:05.501Z,6.17
2023-01-15T21:40:32.059Z,6.32
2023-01-15T21:43:17.259Z,6.39
2023-01-15T21:45:43.903Z,6.29
2023-01-15T21:48:10.479Z,6.30
2023-01-15T21:50:37.804Z,6.27
2023-01-15T21:53:04.465Z,6.23
2023-01-15T21:55:31.099Z,6.22
2023-01-15T21:57:58.721Z,6.15
2023-01-15T22:00:27.744Z,6.16
2023-01-15T22:02:55.849Z,6.10
2023-01-15T22:05:22.756Z,6.13
2023-01-15T22:07:49.416Z,6.06
2023-01-15T22:10:17.929Z,5.92
2023-01-15T22:12:44.549Z,5.99
2023-01-15T22:15:11.970Z,5.92
2023-01-15T22:17:38.563Z,5.89
2023-01-15T22:20:06.488Z,5.84
2023-01-15T22:22:35.842Z,5.87
2023-01-15T22:25:02.774Z,5.98
2023-01-15T22:27:30.384Z,5.92
2023-01-15T22:29:56.975Z,5.87
2023-01-15T22:32:23.605Z,5.73
2023-01-15T22:34:50.164Z,5.65
2023-01-15T22:37:16.807Z,5.73
2023-01-15T22:39:43.396Z,5.85
2023-01-15T22:42:32.734Z,5.76
2023-01-15T22:45:02.826Z,5.65
2023-01-15T22:47:29.560Z,5.63
2023-01-15T22:49:56.371Z,5.64
2023-01-15T22:52:25.553Z,5.74
2023-01-15T22:54:52.361Z,5.78
2023-01-15T22:57:19.042Z,5.78
2023-01-15T22:59:45.647Z,5.60
2023-01-15T23:02:12.580Z,5.75
2023-01-15T23:04:39.355Z,5.59
2023-01-15T23:07:05.990Z,5.52
2023-01-15T23:09:32.579Z,5.52
2023-01-15T23:11:59.175Z,5.50
2023-01-15T23:14:25.857Z,5.39
2023-01-15T23:16:52.664Z,5.37
2023-01-15T23:19:19.989Z,5.35
2023-01-15T23:21:46.527Z,5.32
2023-01-15T23:24:13.192Z,5.31
2023-01-15T23:26:39.997Z,5.26
2023-01-15T23:29:06.865Z,5.19
2023-01-15T23:31:33.735Z,5.26
2023-01-15T23:34:00.745Z,5.22
2023-01-15T23:36:27.705Z,5.32
2023-01-15T23:38:54.691Z,5.20
2023-01-15T23:41:42.365Z,5.24
2023-01-15T23:44:32.046Z,5.30
2023-01-15T23:46:58.763Z,5.22
2023-01-15T23:49:25.329Z,5.16
2023-01-15T23:51:51.957Z,5.22
2023-01-15T23:54:18.514Z,5.18
2023-01-15T23:56:46.265Z,5.15
2023-01-15T23:59:13.039Z,5.22
